Time;durP1;ratioP1;P1;durP2;ratioP2;P2;SDS_P1;SDS_P2;PMS_P1;PMS_P2;Temp;Humidity;BMP_temperature;BMP_pressure;BME280_temperature;BME280_humidity;BME280_pressure;Samples;Min_cycle;Max_cycle;Signal;HPM_P1;HPM_P2
2022/12/08 00:01:09;;;;;;;10.20;5.60;;;;;;;-7.75;66.85;100010.16;4979440;28;20132;-62
2022/12/08 00:03:34;;;;;;;10.25;3.70;;;;;;;-7.75;66.38;100007.56;4981458;28;20057;-63
2022/12/08 00:11:28;;;;;;;7.72;3.15;;;;;;;-7.62;66.58;100005.94;4954910;28;20061;-64
2022/12/08 00:13:52;;;;;;;17.88;7.15;;;;;;;-7.82;66.16;100011.81;4977114;28;20961;-68
2022/12/08 00:16:17;;;;;;;10.23;5.43;;;;;;;-7.70;66.63;100005.88;4984274;28;20044;-63
2022/12/08 00:18:41;;;;;;;11.63;6.10;;;;;;;-7.68;66.06;99995.53;4982941;28;20037;-68
2022/12/08 00:21:06;;;;;;;9.80;5.10;;;;;;;-7.73;66.52;99995.50;4975374;28;20050;-67
2022/12/08 00:23:31;;;;;;;10.32;6.15;;;;;;;-7.73;66.47;99985.16;4998112;28;20042;-66
2022/12/08 00:25:55;;;;;;;13.75;6.38;;;;;;;-7.81;66.26;99992.00;4980731;28;20152;-67
2022/12/08 00:28:20;;;;;;;12.82;6.22;;;;;;;-7.82;66.83;99993.72;4998272;28;20045;-68
2022/12/08 00:30:45;;;;;;;8.05;4.72;;;;;;;-7.66;66.65;99980.88;4965353;28;20052;-66
2022/12/08 00:33:11;;;;;;;10.30;5.53;;;;;;;-7.77;66.58;99993.72;4998787;28;20128;-70
2022/12/08 00:35:35;;;;;;;6.13;4.13;;;;;;;-7.63;66.82;99997.28;4979888;28;20037;-68
2022/12/08 00:38:00;;;;;;;6.28;4.22;;;;;;;-7.68;66.55;99991.22;4983135;28;20100;-68
2022/12/08 00:40:26;;;;;;;9.77;5.65;;;;;;;-7.73;66.55;99991.19;4999517;28;20053;-68
2022/12/08 00:42:50;;;;;;;10.35;4.88;;;;;;;-7.72;66.99;99982.56;4999635;28;20044;-69
2022/12/08 00:45:15;;;;;;;7.03;3.60;;;;;;;-7.61;66.65;99990.41;4983382;28;20045;-74
2022/12/08 00:47:39;;;;;;;8.77;4.28;;;;;;;-7.59;66.58;99978.34;5003979;28;20104;-77
2022/12/08 00:50:05;;;;;;;7.88;4.53;;;;;;;-7.48;66.16;99976.69;4967622;28;20132;-78
2022/12/08 00:52:30;;;;;;;11.85;4.97;;;;;;;-7.43;66.14;99977.56;4961776;28;20084;-75
2022/12/08 00:54:54;;;;;;;8.25;5.30;;;;;;;-7.39;65.81;99991.41;4949986;28;20085;-77
2022/12/08 00:57:19;;;;;;;6.38;4.15;;;;;;;-7.36;65.47;99981.06;4966876;28;20073;-75
2022/12/08 00:59:44;;;;;;;8.57;5.22;;;;;;;-7.31;65.28;99971.59;4983516;28;20144;-68
2022/12/08 01:02:08;;;;;;;4.97;2.63;;;;;;;-7.53;65.52;99990.44;4965168;28;20520;-71
2022/12/08 01:04:34;;;;;;;8.80;4.32;;;;;;;-7.58;65.41;99985.25;4982316;28;20049;-72
2022/12/08 01:06:58;;;;;;;5.65;3.72;;;;;;;-7.42;65.63;99986.19;4964938;28;20112;-73
2022/12/08 01:09:23;;;;;;;12.05;6.07;;;;;;;-7.46;65.19;99981.88;4963873;28;20068;-71
2022/12/08 01:11:47;;;;;;;5.50;2.78;;;;;;;-7.51;65.28;99986.16;4980226;28;20121;-71
2022/12/08 01:14:12;;;;;;;11.75;5.45;;;;;;;-7.66;65.55;100005.03;4958289;28;20128;-74
2022/12/08 01:16:39;;;;;;;6.22;4.63;;;;;;;-7.51;65.73;99984.44;4975515;28;20040;-74
2022/12/08 01:19:04;;;;;;;9.98;4.53;;;;;;;-7.55;65.25;99980.06;4978568;28;20057;-71
2022/12/08 01:21:29;;;;;;;10.45;6.40;;;;;;;-7.79;65.67;99991.16;4939815;28;20040;-71
2022/12/08 01:23:54;;;;;;;11.43;4.50;;;;;;;-7.67;65.90;99984.34;4978605;28;20053;-73
2022/12/08 01:26:19;;;;;;;4.75;2.58;;;;;;;-7.59;66.07;99982.66;4995668;28;20041;-73
2022/12/08 01:28:44;;;;;;;10.20;5.90;;;;;;;-7.51;64.80;99975.78;4986903;28;20037;-64
2022/12/08 01:31:16;;;;;;;11.18;5.65;;;;;;;-7.73;65.39;99977.38;4980798;28;20066;-64
2022/12/08 01:33:41;;;;;;;6.65;3.65;;;;;;;-7.71;66.00;99984.31;4943992;28;20843;-65
2022/12/08 01:36:07;;;;;;;6.72;4.22;;;;;;;-7.70;66.11;99974.81;4982305;28;20087;-64
2022/12/08 01:38:32;;;;;;;7.55;4.97;;;;;;;-7.54;65.51;99986.13;4979318;28;20133;-65
2022/12/08 01:40:57;;;;;;;8.73;5.50;;;;;;;-7.80;65.70;99983.38;4986368;28;20069;-64
2022/12/08 01:43:22;;;;;;;7.15;4.68;;;;;;;-7.77;65.67;99983.38;4979448;28;20037;-64
2022/12/08 01:45:47;;;;;;;10.73;6.18;;;;;;;-7.92;66.37;99983.28;4981435;28;20042;-65
2022/12/08 01:48:21;;;;;;;9.05;4.25;;;;;;;-7.93;66.74;99981.53;4982213;28;20042;-66
2022/12/08 01:50:47;;;;;;;8.02;4.50;;;;;;;-7.82;66.83;99977.31;4983028;28;20492;-64
2022/12/08 01:53:18;;;;;;;13.00;7.05;;;;;;;-7.97;66.69;99970.31;4982750;28;20045;-64
2022/12/08 01:55:48;;;;;;;13.77;8.13;;;;;;;-7.95;66.41;99984.13;4979246;28;20037;-64
2022/12/08 01:58:18;;;;;;;9.50;5.90;;;;;;;-7.64;66.64;99973.97;4979832;28;20069;-67
2022/12/08 02:00:43;;;;;;;8.15;5.57;;;;;;;-7.75;65.56;99968.72;4976488;28;20068;-72
2022/12/08 02:03:17;;;;;;;10.07;6.28;;;;;;;-7.71;65.89;99986.91;4959996;28;20065;-74
2022/12/08 02:05:43;;;;;;;12.80;5.25;;;;;;;-7.53;64.99;99987.84;4977009;28;20049;-74
2022/12/08 02:08:10;;;;;;;12.63;6.68;;;;;;;-7.73;65.25;99970.47;4979365;28;20053;-72
2022/12/08 02:10:39;;;;;;;8.52;4.88;;;;;;;-7.57;65.00;99986.13;4977012;28;20100;-71
2022/12/08 02:13:08;;;;;;;9.98;4.85;;;;;;;-7.72;64.72;99984.28;4964242;28;20048;-73
2022/12/08 02:15:54;;;;;;;8.00;5.72;;;;;;;-7.66;64.82;99971.38;4976712;28;20061;-72
2022/12/08 02:18:35;;;;;;;6.18;3.97;;;;;;;-7.68;65.11;99961.91;4995252;28;20507;-73
2022/12/08 02:21:51;;;;;;;12.57;4.70;;;;;;;-7.73;65.48;99957.53;4989484;28;20048;-73
2022/12/08 02:24:21;;;;;;;11.18;5.22;;;;;;;-7.72;65.17;99948.94;4921479;29;20063;-72
2022/12/08 02:26:51;;;;;;;8.70;5.45;;;;;;;-7.90;65.37;99946.19;4904673;29;20047;-72
2022/12/08 02:29:21;;;;;;;8.93;4.93;;;;;;;-7.74;65.77;99942.88;4921696;29;20513;-74
2022/12/08 02:32:08;;;;;;;10.00;6.50;;;;;;;-7.75;64.85;99946.31;4920960;28;20070;-73
2022/12/08 02:34:58;;;;;;;8.02;4.25;;;;;;;-7.87;65.56;99937.59;4919696;29;20565;-72
2022/12/08 02:37:31;;;;;;;11.00;4.93;;;;;;;-7.83;65.36;99934.19;4829336;29;20942;-73
2022/12/08 02:40:07;;;;;;;10.18;5.03;;;;;;;-7.80;66.21;99937.66;4841767;29;20057;-72
2022/12/08 02:42:32;;;;;;;4.85;3.65;;;;;;;-7.91;65.60;99957.44;4826130;29;20049;-73
2022/12/08 02:45:08;;;;;;;10.02;4.97;;;;;;;-7.81;65.96;99950.59;4823610;29;20057;-73
2022/12/08 02:47:33;;;;;;;12.95;6.88;;;;;;;-7.77;65.37;99953.19;4823085;29;20402;-72
2022/12/08 02:49:58;;;;;;;9.25;5.05;;;;;;;-7.86;65.54;99940.19;4807966;29;20827;-73
2022/12/08 02:52:23;;;;;;;9.93;6.10;;;;;;;-7.86;65.84;99932.44;4819910;29;20418;-63
2022/12/08 02:54:55;;;;;;;6.20;4.45;;;;;;;-7.70;65.19;99930.81;4821425;29;20606;-64
2022/12/08 02:57:35;;;;;;;11.32;6.03;;;;;;;-7.73;64.85;99939.44;4790761;29;20109;-63
2022/12/08 03:00:08;;;;;;;10.18;5.22;;;;;;;-7.79;65.09;99938.53;4843169;29;20093;-73
2022/12/08 03:02:39;;;;;;;8.52;5.15;;;;;;;-7.77;64.73;99941.97;4863376;29;20059;-74
2022/12/08 03:05:15;;;;;;;7.28;4.47;;;;;;;-7.85;65.27;99929.00;4869475;29;20136;-76
2022/12/08 03:07:53;;;;;;;10.70;5.70;;;;;;;-7.87;65.32;99925.53;4861631;29;20109;-73
2022/12/08 03:10:34;;;;;;;12.45;7.80;;;;;;;-7.74;65.09;99929.06;4862360;29;20136;-74
2022/12/08 03:13:16;;;;;;;5.63;3.60;;;;;;;-7.73;65.18;99934.25;4873246;29;20055;-74
2022/12/08 03:15:44;;;;;;;11.60;5.32;;;;;;;-7.84;65.36;99920.38;4957332;28;20045;-74
2022/12/08 03:18:13;;;;;;;10.65;6.70;;;;;;;-8.09;65.24;99916.75;4947629;28;20141;-74
2022/12/08 03:20:39;;;;;;;14.68;6.78;;;;;;;-8.14;65.58;99910.69;4977229;28;20129;-72
2022/12/08 03:23:08;;;;;;;9.82;5.63;;;;;;;-7.84;65.93;99941.06;4961251;28;20064;-76
2022/12/08 03:25:38;;;;;;;14.27;6.82;;;;;;;-7.88;65.66;99928.09;4958374;28;20045;-74
2022/12/08 03:28:03;;;;;;;9.02;4.55;;;;;;;-7.82;65.14;99910.03;4941995;28;20079;-75
2022/12/08 03:30:35;;;;;;;12.23;7.38;;;;;;;-7.99;65.65;99930.59;4976614;28;20054;-76
2022/12/08 03:32:59;;;;;;;6.10;3.90;;;;;;;-7.76;65.07;99913.53;4983860;28;20046;-74
2022/12/08 03:35:30;;;;;;;8.65;4.65;;;;;;;-7.83;64.97;99924.69;4966630;28;20058;-74
2022/12/08 03:38:06;;;;;;;15.65;7.47;;;;;;;-7.92;65.12;99911.72;4977246;28;20046;-76
2022/12/08 03:40:31;;;;;;;6.35;4.65;;;;;;;-7.87;65.84;99917.75;4975101;28;20436;-76
2022/12/08 03:42:56;;;;;;;12.65;7.28;;;;;;;-7.88;65.71;99928.09;4976737;28;20440;-76
2022/12/08 03:45:21;;;;;;;8.07;6.00;;;;;;;-7.76;65.08;99908.34;4979247;28;20048;-76
2022/12/08 03:47:45;;;;;;;10.10;5.85;;;;;;;-7.85;65.30;99895.34;4977436;28;20041;-75
2022/12/08 03:50:10;;;;;;;11.20;7.30;;;;;;;-8.11;66.30;99891.72;4979282;28;20054;-75
2022/12/08 03:52:35;;;;;;;8.90;4.70;;;;;;;-7.92;66.33;99914.28;4961777;28;20049;-75
2022/12/08 03:54:59;;;;;;;7.82;4.65;;;;;;;-7.89;66.34;99905.66;4942790;28;20073;-72
2022/12/08 03:57:24;;;;;;;6.30;5.65;;;;;;;-7.90;66.33;99897.03;4955367;28;20034;-73
2022/12/08 03:59:49;;;;;;;9.02;4.72;;;;;;;-7.92;66.58;99896.19;4977287;28;20049;-74
2022/12/08 04:02:13;;;;;;;3.95;2.30;;;;;;;-7.89;66.24;99901.34;4961375;28;20053;-73
2022/12/08 04:04:38;;;;;;;11.27;5.72;;;;;;;-7.83;66.31;99897.97;4979279;28;20501;-74
2022/12/08 04:07:02;;;;;;;7.90;4.45;;;;;;;-7.76;66.50;99869.53;4981123;28;20049;-73
2022/12/08 04:09:27;;;;;;;11.20;7.50;;;;;;;-7.73;65.94;99882.50;4983561;28;20046;-72
2022/12/08 04:11:51;;;;;;;11.70;6.05;;;;;;;-7.87;65.81;99891.88;4995685;28;20072;-74
2022/12/08 04:14:17;;;;;;;12.32;7.07;;;;;;;-7.97;66.12;99879.75;4970960;28;20053;-74
2022/12/08 04:16:41;;;;;;;14.95;7.80;;;;;;;-8.06;66.95;99879.69;4993028;28;20033;-74
2022/12/08 04:19:06;;;;;;;7.20;3.70;;;;;;;-7.82;67.05;99881.56;4965626;28;20045;-75
2022/12/08 04:21:31;;;;;;;8.07;5.13;;;;;;;-7.95;67.00;99890.13;4995806;28;20052;-73
2022/12/08 04:23:55;;;;;;;14.50;5.93;;;;;;;-7.96;67.22;99886.66;4979241;28;20045;-73
2022/12/08 04:26:20;;;;;;;15.77;8.05;;;;;;;-7.98;67.15;99884.91;4995502;28;20424;-73
2022/12/08 04:28:45;;;;;;;12.32;7.20;;;;;;;-7.89;67.31;99885.81;4996819;28;20236;-65
2022/12/08 04:31:10;;;;;;;12.85;7.18;;;;;;;-7.99;67.74;99886.63;4979404;28;20100;-66
2022/12/08 04:33:35;;;;;;;7.13;3.88;;;;;;;-7.95;67.90;99884.94;4962741;28;20051;-65
2022/12/08 04:36:01;;;;;;;10.05;5.95;;;;;;;-7.96;68.19;99897.00;4996125;28;20124;-65
2022/12/08 04:38:27;;;;;;;12.90;7.93;;;;;;;-8.02;68.14;99888.34;4951521;28;20078;-65
2022/12/08 04:40:52;;;;;;;7.65;4.20;;;;;;;-7.99;68.47;99888.34;5007159;28;20037;-63
2022/12/08 04:43:16;;;;;;;13.30;6.25;;;;;;;-7.94;68.23;99886.66;4994281;28;20045;-65
2022/12/08 04:45:41;;;;;;;8.05;4.97;;;;;;;-7.94;68.60;99895.31;4989251;28;20085;-65
2022/12/08 04:48:06;;;;;;;8.40;4.90;;;;;;;-7.90;68.88;99888.44;5006082;28;20049;-65
2022/12/08 04:50:31;;;;;;;15.25;5.47;;;;;;;-7.93;68.03;99878.94;4965686;28;20046;-65
2022/12/08 04:52:55;;;;;;;15.98;7.18;;;;;;;-8.18;68.61;99883.06;5010495;28;20052;-64
2022/12/08 04:55:20;;;;;;;13.60;6.90;;;;;;;-8.10;68.99;99889.16;4992977;28;20088;-65
2022/12/08 04:57:45;;;;;;;7.40;4.43;;;;;;;-7.93;69.04;99891.84;4966429;28;20049;-65
2022/12/08 05:00:12;;;;;;;11.52;6.53;;;;;;;-7.94;68.11;99882.38;4980561;28;20044;-65
2022/12/08 05:02:37;;;;;;;3.97;3.13;;;;;;;-8.02;68.99;99873.69;4981068;28;20049;-65
2022/12/08 05:05:03;;;;;;;10.73;5.05;;;;;;;-8.05;68.67;99884.03;4980134;28;20062;-66
2022/12/08 05:07:28;;;;;;;11.50;5.43;;;;;;;-7.84;68.50;99865.16;4964672;28;20129;-66
2022/12/08 05:09:52;;;;;;;8.45;4.82;;;;;;;-7.85;68.33;99866.91;4940870;28;20212;-66
2022/12/08 05:12:17;;;;;;;10.98;6.38;;;;;;;-7.97;68.70;99877.16;4970749;28;20103;-66
2022/12/08 05:14:41;;;;;;;12.15;6.68;;;;;;;-7.92;68.61;99879.78;4944695;28;20400;-65
2022/12/08 05:17:06;;;;;;;10.70;5.10;;;;;;;-7.91;68.75;99876.34;4963222;28;20033;-64
2022/12/08 05:19:31;;;;;;;11.68;5.63;;;;;;;-7.94;68.76;99873.75;4960660;28;20042;-65
2022/12/08 05:21:55;;;;;;;15.10;6.32;;;;;;;-7.77;68.55;99883.31;4943080;28;20053;-66
2022/12/08 05:24:20;;;;;;;13.85;7.18;;;;;;;-7.95;68.03;99870.28;4977230;28;20904;-66
2022/12/08 05:26:45;;;;;;;11.45;6.15;;;;;;;-8.01;68.03;99890.09;4991508;28;20041;-65
2022/12/08 05:29:09;;;;;;;10.73;5.70;;;;;;;-7.98;68.31;99879.75;4978264;28;20041;-65
2022/12/08 05:31:34;;;;;;;6.00;3.80;;;;;;;-8.02;69.03;99873.69;4976519;28;20061;-65
2022/12/08 05:33:59;;;;;;;10.25;5.85;;;;;;;-8.08;69.22;99873.63;4978033;28;20140;-65
2022/12/08 05:36:23;;;;;;;11.75;6.93;;;;;;;-7.86;68.55;99872.91;4976511;28;20042;-65
2022/12/08 05:38:48;;;;;;;9.52;5.13;;;;;;;-7.97;68.59;99860.78;4978562;28;20042;-65
2022/12/08 05:41:15;;;;;;;9.75;4.57;;;;;;;-8.01;68.07;99866.81;4978304;28;20404;-65
2022/12/08 05:43:40;;;;;;;15.90;7.43;;;;;;;-8.14;68.37;99871.91;4960295;28;20571;-66
2022/12/08 05:46:06;;;;;;;7.07;4.05;;;;;;;-8.09;68.88;99861.56;4961744;28;20537;-66
2022/12/08 05:48:31;;;;;;;7.40;4.32;;;;;;;-7.97;68.90;99864.22;4976395;28;20049;-64
2022/12/08 05:50:56;;;;;;;6.35;4.05;;;;;;;-7.99;68.86;99870.25;4926471;28;20053;-65
2022/12/08 05:53:21;;;;;;;14.23;6.25;;;;;;;-8.13;68.75;99876.22;4943792;28;20037;-64
2022/12/08 05:55:46;;;;;;;13.70;6.25;;;;;;;-8.19;69.23;99881.31;4940439;28;20038;-65
2022/12/08 05:58:16;;;;;;;22.63;10.52;;;;;;;-7.96;68.75;99884.06;4976266;28;20044;-66
2022/12/08 06:00:42;;;;;;;13.38;6.55;;;;;;;-7.96;68.99;99875.44;4976338;28;20189;-66
2022/12/08 06:03:07;;;;;;;7.90;4.55;;;;;;;-8.04;69.21;99884.88;4977122;28;20566;-67
2022/12/08 06:05:33;;;;;;;7.35;4.53;;;;;;;-8.03;69.24;99887.50;4946889;28;20384;-65
2022/12/08 06:07:57;;;;;;;11.90;5.18;;;;;;;-7.93;68.93;99878.94;4976871;28;20046;-66
2022/12/08 06:10:22;;;;;;;9.27;5.63;;;;;;;-7.82;68.96;99874.69;4976927;28;20052;-66
2022/12/08 06:12:46;;;;;;;7.82;4.38;;;;;;;-7.88;69.04;99868.59;4959216;28;20085;-66
2022/12/08 06:15:11;;;;;;;9.55;3.47;;;;;;;-7.83;68.88;99866.91;4976747;28;20077;-64
2022/12/08 06:17:36;;;;;;;9.73;5.45;;;;;;;-7.92;68.83;99869.44;4975982;28;20037;-67
2022/12/08 06:20:01;;;;;;;6.55;3.80;;;;;;;-7.88;68.42;99863.41;4959871;28;20050;-67
2022/12/08 06:22:26;;;;;;;7.75;3.10;;;;;;;-7.91;69.03;99855.66;4959484;28;20103;-66
2022/12/08 06:24:50;;;;;;;12.13;5.68;;;;;;;-7.99;68.88;99863.34;4977059;28;20133;-65
2022/12/08 06:27:15;;;;;;;9.85;4.18;;;;;;;-7.73;68.68;99856.59;4947145;28;20120;-65
2022/12/08 06:29:40;;;;;;;4.30;3.30;;;;;;;-7.81;68.95;99862.59;4975733;28;20050;-65
2022/12/08 06:32:04;;;;;;;8.82;3.67;;;;;;;-7.74;68.65;99870.41;4959326;28;20050;-66
2022/12/08 06:34:29;;;;;;;13.13;4.60;;;;;;;-7.66;68.21;99847.13;4976672;28;20052;-64
2022/12/08 06:36:54;;;;;;;9.73;4.82;;;;;;;-7.85;67.75;99866.03;4946154;28;20493;-64
2022/12/08 06:39:18;;;;;;;9.45;4.75;;;;;;;-7.72;68.16;99842.81;4975431;28;20041;-65
2022/12/08 06:44:26;;;;;;;3.75;2.40;;;;;;;-7.74;67.61;99856.59;4945009;28;20042;-66
2022/12/08 06:46:51;;;;;;;10.98;5.07;;;;;;;-7.87;67.63;99863.44;4976200;28;20045;-66
2022/12/08 06:49:16;;;;;;;5.90;2.70;;;;;;;-7.89;68.18;99870.31;4956024;28;20049;-74
2022/12/08 06:51:41;;;;;;;11.05;5.18;;;;;;;-7.77;67.96;99867.78;4942781;28;20129;-74
2022/12/08 06:54:05;;;;;;;9.00;4.18;;;;;;;-7.77;68.07;99849.69;4976691;28;20048;-74
2022/12/08 06:56:30;;;;;;;8.75;4.38;;;;;;;-7.80;67.76;99865.22;4959778;28;20065;-74
2022/12/08 06:58:55;;;;;;;11.07;4.63;;;;;;;-7.86;68.49;99866.88;4959455;28;20575;-75
2022/12/08 07:01:19;;;;;;;8.70;4.15;;;;;;;-7.90;68.42;99871.16;4959882;28;20089;-74
2022/12/08 07:03:45;;;;;;;10.15;5.25;;;;;;;-7.81;68.66;99868.66;4963286;28;20045;-77
2022/12/08 07:06:15;;;;;;;5.00;3.72;;;;;;;-7.59;68.64;99853.22;4993969;28;20123;-76
2022/12/08 07:08:40;;;;;;;10.88;4.85;;;;;;;-7.64;67.86;99858.38;5002163;28;20048;-74
2022/12/08 07:11:08;;;;;;;7.20;4.18;;;;;;;-7.50;67.86;99861.03;5009567;28;20041;-75
2022/12/08 07:13:32;;;;;;;7.38;4.90;;;;;;;-7.40;67.28;99862.78;4998954;28;20283;-75
2022/12/08 07:15:57;;;;;;;8.18;4.43;;;;;;;-7.47;66.82;99861.91;4974416;28;20144;-75
2022/12/08 07:18:22;;;;;;;10.82;5.15;;;;;;;-7.62;66.92;99861.84;4983350;28;20052;-73
2022/12/08 07:20:46;;;;;;;13.98;4.30;;;;;;;-7.57;67.64;99859.28;4963588;28;20033;-75
2022/12/08 07:23:11;;;;;;;15.00;5.72;;;;;;;-7.81;67.51;99853.13;4982429;28;20057;-74
2022/12/08 07:25:36;;;;;;;11.27;5.15;;;;;;;-7.62;67.42;99859.25;4979397;28;20045;-75
2022/12/08 07:28:06;;;;;;;10.63;3.70;;;;;;;-7.35;67.29;99874.06;4967750;28;20128;-75
2022/12/08 07:30:31;;;;;;;7.10;3.97;;;;;;;-7.47;66.59;99861.06;4996563;28;20064;-75
2022/12/08 07:32:55;;;;;;;7.22;2.85;;;;;;;-7.39;66.35;99852.44;4963278;28;20037;-76
2022/12/08 07:35:20;;;;;;;17.00;6.55;;;;;;;-7.65;66.38;99877.34;4978677;28;20129;-76
2022/12/08 07:37:45;;;;;;;8.57;3.85;;;;;;;-7.60;67.00;99867.91;4963387;28;20049;-74
2022/12/08 07:40:10;;;;;;;16.85;7.25;;;;;;;-7.75;67.08;99870.41;4962324;28;20047;-75
2022/12/08 07:42:35;;;;;;;9.57;4.25;;;;;;;-7.54;67.25;99854.97;4996178;28;20079;-77
2022/12/08 07:45:00;;;;;;;7.35;3.92;;;;;;;-7.29;66.98;99847.28;4961884;28;20061;-76
2022/12/08 07:47:24;;;;;;;4.13;2.33;;;;;;;-7.33;66.20;99851.59;4960918;28;20046;-75
2022/12/08 07:49:49;;;;;;;9.48;4.03;;;;;;;-7.20;66.65;99849.91;4977969;28;20500;-75
2022/12/08 07:52:15;;;;;;;11.80;5.68;;;;;;;-7.35;66.73;99850.75;4995890;28;20097;-76
2022/12/08 07:54:39;;;;;;;9.52;5.35;;;;;;;-7.22;66.11;99854.25;4977764;28;20068;-74
2022/12/08 07:57:04;;;;;;;6.57;3.78;;;;;;;-7.19;66.16;99836.97;4995734;28;20508;-75
2022/12/08 07:59:29;;;;;;;7.88;3.55;;;;;;;-7.02;65.52;99830.09;4994502;28;20073;-75
2022/12/08 08:01:54;;;;;;;7.05;4.00;;;;;;;-7.20;65.88;99824.88;4995888;28;20045;-74
2022/12/08 08:04:18;;;;;;;6.07;4.13;;;;;;;-7.00;65.75;99823.19;4978112;28;20080;-74
2022/12/08 08:06:43;;;;;;;14.02;6.15;;;;;;;-7.21;65.84;99824.84;4977702;28;20116;-73
2022/12/08 08:09:09;;;;;;;7.82;3.45;;;;;;;-7.13;66.08;99831.81;4978393;28;20128;-75
2022/12/08 08:11:33;;;;;;;8.55;4.50;;;;;;;-7.02;66.29;99832.69;4995427;28;20407;-75
2022/12/08 08:13:58;;;;;;;11.88;5.28;;;;;;;-7.06;65.57;99825.78;4972562;28;20041;-74
2022/12/08 08:16:23;;;;;;;15.57;5.53;;;;;;;-6.79;65.24;99840.50;4970324;28;20060;-76
2022/12/08 08:18:49;;;;;;;11.80;5.28;;;;;;;-6.96;64.91;99829.25;4999425;28;20045;-76
2022/12/08 08:21:15;;;;;;;5.50;2.60;;;;;;;-7.01;65.62;99812.84;5008547;28;20089;-75
2022/12/08 08:23:39;;;;;;;5.00;3.13;;;;;;;-6.98;65.84;99811.09;4965978;28;20107;-73
2022/12/08 08:26:07;;;;;;;5.35;2.35;;;;;;;-6.76;65.20;99813.72;4999788;28;20049;-74
2022/12/08 08:28:32;;;;;;;10.77;5.60;;;;;;;-6.62;64.99;99827.53;4999921;28;20037;-75
2022/12/08 08:30:58;;;;;;;15.27;5.43;;;;;;;-6.94;64.36;99809.38;4992286;28;20042;-74
2022/12/08 08:33:23;;;;;;;8.38;4.00;;;;;;;-6.97;65.23;99830.09;4991182;28;20072;-74
2022/12/08 08:35:47;;;;;;;7.03;3.53;;;;;;;-6.94;64.84;99824.94;4981385;28;20119;-75
2022/12/08 08:38:12;;;;;;;13.18;5.30;;;;;;;-7.07;65.50;99818.84;4999459;28;20056;-75
2022/12/08 08:40:36;;;;;;;9.00;3.70;;;;;;;-6.99;67.00;99816.28;4998834;28;20936;-75
2022/12/08 08:43:04;;;;;;;9.23;4.88;;;;;;;-6.75;65.68;99815.44;4998959;28;20058;-76
2022/12/08 08:45:28;;;;;;;8.52;4.63;;;;;;;-6.73;65.99;99822.34;4954755;28;20042;-75
2022/12/08 08:47:54;;;;;;;7.72;4.50;;;;;;;-6.67;65.58;99813.75;4980878;28;20045;-76
2022/12/08 08:50:18;;;;;;;9.32;6.13;;;;;;;-6.82;65.93;99809.41;4982064;28;20041;-76
2022/12/08 08:52:43;;;;;;;14.43;6.22;;;;;;;-6.92;66.54;99817.16;4999790;28;20087;-75
2022/12/08 08:55:08;;;;;;;10.30;5.60;;;;;;;-6.77;66.32;99817.19;4999826;28;20045;-77
2022/12/08 08:57:33;;;;;;;5.32;3.28;;;;;;;-6.70;66.20;99813.72;4985655;28;20037;-75
2022/12/08 08:59:57;;;;;;;10.95;5.07;;;;;;;-6.70;66.33;99821.50;4998706;28;20083;-74
2022/12/08 09:02:22;;;;;;;7.75;4.55;;;;;;;-6.61;65.69;99816.31;4980991;28;20156;-64
2022/12/08 09:04:47;;;;;;;7.93;4.25;;;;;;;-6.62;65.25;99820.63;4996543;28;20049;-67
2022/12/08 09:07:12;;;;;;;6.40;3.40;;;;;;;-6.73;65.26;99829.28;4979996;28;20495;-67
2022/12/08 09:09:37;;;;;;;12.75;4.57;;;;;;;-6.81;65.84;99825.81;4996643;28;20084;-65
2022/12/08 09:12:01;;;;;;;13.65;7.05;;;;;;;-7.07;66.08;99825.75;4979819;28;20041;-66
2022/12/08 09:14:26;;;;;;;8.35;5.28;;;;;;;-7.03;66.18;99823.19;4954014;28;20042;-64
2022/12/08 09:16:51;;;;;;;11.68;5.72;;;;;;;-6.92;66.47;99822.34;4993844;28;20040;-66
2022/12/08 09:19:16;;;;;;;3.35;2.10;;;;;;;-6.82;66.47;99824.94;4990069;28;20041;-64
2022/12/08 09:21:40;;;;;;;13.05;5.80;;;;;;;-6.97;66.29;99823.19;4991456;28;20087;-64
2022/12/08 09:24:05;;;;;;;13.77;5.57;;;;;;;-6.98;66.35;99812.81;4996811;28;20874;-65
2022/12/08 09:26:30;;;;;;;9.77;5.03;;;;;;;-6.79;65.94;99813.72;4996274;28;20090;-65
2022/12/08 09:28:55;;;;;;;9.00;5.43;;;;;;;-6.86;66.19;99802.47;4983583;28;20412;-64
2022/12/08 09:31:21;;;;;;;12.57;6.07;;;;;;;-6.89;66.14;99805.09;4997028;28;20048;-66
2022/12/08 09:33:46;;;;;;;9.05;4.22;;;;;;;-6.73;66.22;99799.03;4996241;28;20593;-65
2022/12/08 09:36:11;;;;;;;8.15;4.88;;;;;;;-6.67;65.21;99808.56;4997455;28;20030;-64
2022/12/08 09:38:37;;;;;;;8.50;4.47;;;;;;;-6.78;65.73;99805.09;4965837;28;20041;-65
2022/12/08 09:41:06;;;;;;;9.60;4.47;;;;;;;-6.86;66.31;99807.66;4963255;28;20042;-65
2022/12/08 09:44:11;;;;;;;10.45;5.72;;;;;;;-7.04;66.41;99808.50;4947264;28;20045;-66
2022/12/08 09:46:36;;;;;;;14.33;5.90;;;;;;;-7.05;67.08;99808.50;4968966;28;20069;-66
2022/12/08 09:49:03;;;;;;;11.85;3.60;;;;;;;-6.88;67.01;99803.34;4995607;28;20623;-65
2022/12/08 09:51:36;;;;;;;11.07;5.32;;;;;;;-6.85;66.83;99798.16;4984365;28;20522;-65
2022/12/08 09:54:11;;;;;;;14.13;5.55;;;;;;;-6.98;66.58;99805.91;4995932;28;20175;-66
2022/12/08 09:56:36;;;;;;;12.57;6.88;;;;;;;-6.92;66.82;99804.22;4971397;28;20780;-65
2022/12/08 09:59:15;;;;;;;14.25;8.43;;;;;;;-7.24;67.54;99810.19;4979219;28;20057;-65
2022/12/08 10:01:40;;;;;;;12.50;6.72;;;;;;;-7.07;68.28;99803.31;4998251;28;20083;-65
2022/12/08 10:04:32;;;;;;;4.32;2.88;;;;;;;-6.61;67.13;99804.22;4965386;28;20135;-66
2022/12/08 10:07:16;;;;;;;12.60;6.32;;;;;;;-6.74;66.74;99799.03;4996721;28;20183;-66
2022/12/08 10:09:48;;;;;;;7.50;4.22;;;;;;;-6.86;67.44;99793.84;4997264;28;20049;-65
2022/12/08 10:12:22;;;;;;;13.70;5.60;;;;;;;-6.74;67.18;99815.44;4999372;28;20400;-64
2022/12/08 10:15:13;;;;;;;11.07;5.93;;;;;;;-6.58;66.89;99795.59;4984955;28;20056;-65
2022/12/08 10:17:44;;;;;;;12.52;6.10;;;;;;;-6.93;67.73;99800.75;4986083;28;20383;-65
2022/12/08 10:20:19;;;;;;;11.50;6.88;;;;;;;-6.90;67.98;99792.13;4979295;28;20045;-66
2022/12/08 10:22:50;;;;;;;8.70;4.47;;;;;;;-6.87;67.94;99799.88;4980398;28;20407;-65
2022/12/08 10:25:18;;;;;;;15.07;7.28;;;;;;;-6.92;68.03;99806.81;4984084;28;20049;-64
2022/12/08 10:27:45;;;;;;;12.10;4.47;;;;;;;-6.72;68.19;99805.94;4997179;28;20065;-65
2022/12/08 10:30:15;;;;;;;12.07;5.78;;;;;;;-6.68;67.88;99806.81;4978837;28;20096;-65
2022/12/08 10:32:44;;;;;;;9.88;4.85;;;;;;;-6.69;67.55;99815.47;4997351;28;20791;-64
2022/12/08 10:35:14;;;;;;;7.68;4.22;;;;;;;-6.64;67.83;99790.38;4997245;28;20049;-66
2022/12/08 10:37:39;;;;;;;9.40;4.93;;;;;;;-6.69;67.64;99794.72;4980278;28;20104;-65
2022/12/08 10:40:07;;;;;;;10.82;6.80;;;;;;;-6.77;68.44;99791.28;4998218;28;20080;-65
2022/12/08 10:42:36;;;;;;;12.48;5.63;;;;;;;-6.71;68.31;99796.44;4965436;28;20516;-67
2022/12/08 10:45:22;;;;;;;8.77;4.80;;;;;;;-6.57;68.37;99801.63;4982548;28;20048;-67
2022/12/08 10:48:03;;;;;;;8.73;4.95;;;;;;;-6.43;67.91;99802.50;4971830;28;20054;-66
2022/12/08 10:50:30;;;;;;;7.60;4.72;;;;;;;-6.47;67.50;99796.44;4978017;28;20099;-67
2022/12/08 10:52:58;;;;;;;11.68;3.83;;;;;;;-6.52;67.48;99805.94;4972585;28;20045;-67
2022/12/08 10:55:23;;;;;;;9.50;4.82;;;;;;;-6.48;67.58;99792.13;4979839;28;20042;-66
2022/12/08 10:57:48;;;;;;;9.13;3.10;;;;;;;-6.53;67.88;99793.84;4942526;28;20164;-67
2022/12/08 11:00:16;;;;;;;6.40;4.22;;;;;;;-6.40;68.29;99805.06;4940786;28;20049;-66
2022/12/08 11:02:54;;;;;;;15.57;6.70;;;;;;;-6.44;67.49;99785.22;4996806;28;20068;-67
2022/12/08 11:05:21;;;;;;;17.75;8.95;;;;;;;-6.64;68.25;99788.66;4996448;28;20435;-66
2022/12/08 11:07:49;;;;;;;6.70;3.25;;;;;;;-6.51;68.42;99786.91;4971843;28;20034;-63
2022/12/08 11:10:17;;;;;;;13.45;6.97;;;;;;;-6.53;68.61;99782.59;4962283;28;20068;-65
2022/12/08 11:12:43;;;;;;;16.88;7.20;;;;;;;-6.37;68.13;99794.69;4995401;28;20037;-69
2022/12/08 11:15:15;;;;;;;10.65;6.10;;;;;;;-6.39;68.14;99784.31;4965443;28;20045;-69
2022/12/08 11:17:40;;;;;;;12.65;5.82;;;;;;;-6.26;68.23;99785.16;4997861;28;20042;-67
2022/12/08 11:20:07;;;;;;;11.60;6.88;;;;;;;-6.42;68.55;99786.91;4998791;28;20116;-66
2022/12/08 11:22:38;;;;;;;8.40;4.82;;;;;;;-6.41;67.99;99796.41;4997350;28;20053;-69
2022/12/08 11:25:06;;;;;;;12.95;6.75;;;;;;;-6.45;68.56;99773.97;4964897;28;20056;-67
2022/12/08 11:27:32;;;;;;;18.83;7.32;;;;;;;-6.51;68.65;99773.97;4981508;28;20196;-68
2022/12/08 11:29:57;;;;;;;6.88;4.47;;;;;;;-6.27;68.33;99773.06;4986919;28;20124;-66
2022/12/08 11:32:21;;;;;;;8.52;5.05;;;;;;;-6.41;68.90;99773.06;4977939;28;20124;-67
2022/12/08 11:34:57;;;;;;;12.30;5.57;;;;;;;-6.30;68.19;99773.06;4996512;28;20033;-67
2022/12/08 11:37:31;;;;;;;12.57;5.60;;;;;;;-6.19;68.44;99775.63;4982315;28;20056;-68